Time;durP1;ratioP1;P1;durP2;ratioP2;P2;SDS_P1;SDS_P2;PMS_P1;PMS_P2;Temp;Humidity;BMP_temperature;BMP_pressure;BME280_temperature;BME280_humidity;BME280_pressure;Samples;Min_cycle;Max_cycle;Signal;HPM_P1;HPM_P2
2022/08/02 00:04:04;;;;;;;9.90;9.00;;;28.20;50.90;;;;;;4685559;56;21032;-31
2022/08/02 00:09:05;;;;;;;9.38;8.48;;;28.20;50.90;;;;;;4867149;56;21065;-30
2022/08/02 00:14:06;;;;;;;9.52;8.63;;;28.20;51.00;;;;;;4698000;56;21530;-31
2022/08/02 00:19:07;;;;;;;9.65;8.75;;;28.20;51.00;;;;;;4736654;56;20989;-31
2022/08/02 00:24:08;;;;;;;8.30;7.50;;;28.20;51.00;;;;;;4680022;56;21081;-33
2022/08/02 00:29:09;;;;;;;9.07;8.20;;;28.20;51.10;;;;;;4892581;56;21077;-35
2022/08/02 00:34:09;;;;;;;8.60;7.80;;;28.20;51.10;;;;;;4933265;56;21539;-35
2022/08/02 00:39:10;;;;;;;9.10;8.20;;;28.20;51.20;;;;;;5038081;56;21061;-33
2022/08/02 00:44:11;;;;;;;9.15;8.27;;;28.20;51.10;;;;;;4721068;56;21029;-33
2022/08/02 00:49:13;;;;;;;9.25;8.40;;;28.20;51.20;;;;;;4780328;56;21016;-31
2022/08/02 00:54:14;;;;;;;8.90;8.02;;;28.20;51.20;;;;;;4786024;56;21041;-33
2022/08/02 00:59:15;;;;;;;8.77;7.97;;;28.20;51.20;;;;;;4790900;56;21069;-35
2022/08/02 01:04:16;;;;;;;9.52;8.55;;;28.20;51.20;;;;;;4831278;56;21041;-36
2022/08/02 01:09:17;;;;;;;8.63;7.80;;;28.20;51.20;;;;;;4772809;56;21558;-31
2022/08/02 01:14:18;;;;;;;8.48;7.78;;;28.20;51.30;;;;;;4950502;56;21602;-31
2022/08/02 01:19:50;;;;;;;8.57;7.68;;;28.20;51.30;;;;;;4646676;56;21024;-30
2022/08/02 01:26:40;;;;;;;7.95;7.25;;;28.20;51.30;;;;;;4730062;56;21085;-30
2022/08/02 01:32:25;;;;;;;7.90;7.10;;;28.20;51.40;;;;;;5010926;56;21040;-30
2022/08/02 01:37:38;;;;;;;8.63;7.82;;;28.20;51.30;;;;;;4655403;56;21017;-29
2022/08/02 01:42:44;;;;;;;8.60;7.80;;;28.20;51.30;;;;;;4717411;56;21012;-34
2022/08/02 01:47:47;;;;;;;8.50;7.60;;;28.20;51.40;;;;;;4682813;56;21076;-33
2022/08/02 01:52:54;;;;;;;8.25;7.45;;;28.20;51.50;;;;;;4874427;56;21056;-30
2022/08/02 01:58:00;;;;;;;7.82;7.12;;;28.20;51.50;;;;;;4676144;56;21068;-30
2022/08/02 02:03:04;;;;;;;;;;;28.20;51.50;;;;;;4722352;56;21563;-30
2022/08/02 02:08:07;;;;;;;7.35;6.75;;;28.20;51.50;;;;;;5073663;56;20099;-33
2022/08/02 02:13:12;;;;;;;7.68;6.97;;;28.20;51.50;;;;;;4615390;60;21097;-33
2022/08/02 02:18:28;;;;;;;7.70;6.90;;;28.20;51.50;;;;;;4672041;56;21017;-33
2022/08/02 02:23:29;;;;;;;7.95;7.10;;;28.20;51.50;;;;;;4753386;56;22992;-33
2022/08/02 02:28:32;;;;;;;7.65;6.97;;;28.20;51.50;;;;;;5073650;56;21017;-30
2022/08/02 02:33:37;;;;;;;7.97;7.18;;;28.20;51.60;;;;;;4615438;60;21467;-29
2022/08/02 02:38:39;;;;;;;7.32;6.62;;;28.20;51.60;;;;;;4755546;56;21085;-31
2022/08/02 02:43:42;;;;;;;7.80;7.10;;;28.20;51.60;;;;;;4890243;56;21097;-30
2022/08/02 02:48:43;;;;;;;7.10;6.40;;;28.20;51.60;;;;;;5014609;56;21053;-33
2022/08/02 02:53:47;;;;;;;7.40;6.70;;;28.20;51.60;;;;;;4615604;60;21534;-31
2022/08/02 02:58:49;;;;;;;7.43;6.72;;;28.20;51.60;;;;;;4671341;56;21506;-31
2022/08/02 03:03:50;;;;;;;7.60;6.90;;;28.20;51.60;;;;;;4615259;60;21173;-33
2022/08/02 03:08:52;;;;;;;7.00;6.40;;;28.20;51.60;;;;;;4781467;56;21032;-30
2022/08/02 03:13:53;;;;;;;6.68;6.07;;;28.20;51.50;;;;;;5073441;56;21033;-30
2022/08/02 03:18:55;;;;;;;6.82;6.22;;;28.20;51.60;;;;;;5006976;56;21017;-31
2022/08/02 03:23:56;;;;;;;6.95;6.32;;;28.20;51.50;;;;;;4615221;60;21092;-30
2022/08/02 03:28:57;;;;;;;6.95;6.35;;;28.10;51.40;;;;;;4956023;56;21539;-34
2022/08/02 03:33:59;;;;;;;7.30;6.60;;;28.10;51.40;;;;;;4725272;56;21033;-34
2022/08/02 03:39:01;;;;;;;6.40;5.90;;;28.20;51.50;;;;;;4829559;56;21077;-32
2022/08/02 03:44:03;;;;;;;6.62;6.03;;;28.10;51.40;;;;;;4844485;56;21021;-31
2022/08/02 03:49:06;;;;;;;6.72;6.12;;;28.20;51.30;;;;;;4715385;56;21006;-33
2022/08/02 03:54:08;;;;;;;6.97;6.28;;;28.10;51.20;;;;;;4649825;56;21666;-30
2022/08/02 03:59:13;;;;;;;6.20;5.65;;;28.10;51.10;;;;;;4829671;56;21061;-30
2022/08/02 04:04:14;;;;;;;6.67;6.07;;;28.10;51.10;;;;;;4716042;56;21049;-30
2022/08/02 04:09:15;;;;;;;6.05;5.55;;;28.10;51.10;;;;;;4734272;56;21486;-30
2022/08/02 04:14:16;;;;;;;6.20;5.60;;;28.10;51.10;;;;;;4615306;60;21048;-31
2022/08/02 04:19:28;;;;;;;6.57;5.95;;;28.10;51.00;;;;;;4615218;60;21025;-32
2022/08/02 04:24:38;;;;;;;6.40;5.85;;;28.10;51.00;;;;;;4616712;56;21076;-32
2022/08/02 04:29:40;;;;;;;6.25;5.50;;;28.10;51.00;;;;;;4702732;56;21069;-32
2022/08/02 04:34:41;;;;;;;6.20;5.70;;;28.10;51.00;;;;;;4900123;56;21028;-31
2022/08/02 04:39:42;;;;;;;6.10;5.60;;;28.10;51.00;;;;;;4810194;56;21555;-31
2022/08/02 04:44:43;;;;;;;6.05;5.45;;;28.10;50.90;;;;;;4614688;60;21102;-31
2022/08/02 04:49:44;;;;;;;6.22;5.62;;;28.10;51.10;;;;;;4615265;60;21065;-32
2022/08/02 04:54:45;;;;;;;6.15;5.65;;;28.10;50.90;;;;;;4615330;60;21094;-36
2022/08/02 04:59:46;;;;;;;6.15;5.60;;;28.10;50.90;;;;;;4699080;56;21061;-30
2022/08/02 05:04:47;;;;;;;6.18;5.57;;;28.10;50.80;;;;;;4940055;56;21550;-32
2022/08/02 05:09:47;;;;;;;5.72;5.22;;;28.10;50.80;;;;;;4615121;60;21006;-34
2022/08/02 05:14:48;;;;;;;5.60;5.10;;;28.10;50.80;;;;;;4738770;56;21053;-32
2022/08/02 05:19:49;;;;;;;6.55;5.43;;;28.10;50.80;;;;;;4704084;56;21001;-31
2022/08/02 05:24:50;;;;;;;6.70;5.75;;;28.10;51.00;;;;;;4721265;56;21036;-30
2022/08/02 05:29:53;;;;;;;6.10;5.50;;;28.00;50.80;;;;;;4654929;56;21009;-30
2022/08/02 05:34:54;;;;;;;6.05;5.37;;;28.00;50.80;;;;;;4648499;56;21578;-31
2022/08/02 05:39:55;;;;;;;6.30;5.65;;;28.00;50.70;;;;;;4615429;60;21026;-30
2022/08/02 05:44:55;;;;;;;6.05;5.45;;;28.00;50.70;;;;;;4615305;60;21040;-32
2022/08/02 05:49:56;;;;;;;6.28;5.68;;;28.00;50.80;;;;;;4712699;56;21092;-32
2022/08/02 05:55:14;;;;;;;6.70;6.10;;;28.00;50.70;;;;;;4638475;56;21543;-31
2022/08/02 06:00:16;;;;;;;6.62;5.87;;;28.00;50.70;;;;;;4861408;56;21029;-31
2022/08/02 06:05:22;;;;;;;7.93;5.70;;;28.00;50.80;;;;;;4687837;56;21531;-31
2022/08/02 06:10:25;;;;;;;7.93;5.90;;;28.00;50.70;;;;;;4672218;56;21009;-31
2022/08/02 06:15:26;;;;;;;7.20;6.20;;;28.00;50.80;;;;;;4818994;56;21111;-34
2022/08/02 06:20:34;;;;;;;8.23;6.75;;;28.10;50.80;;;;;;4650100;56;21005;-31
2022/08/02 06:25:39;;;;;;;7.00;6.30;;;28.00;50.80;;;;;;4684267;56;21575;-30
2022/08/02 06:30:42;;;;;;;7.37;6.40;;;28.00;50.80;;;;;;4894820;56;21471;-30
2022/08/02 06:36:03;;;;;;;8.50;7.10;;;28.00;50.80;;;;;;5073223;56;21061;-31
2022/08/02 06:41:11;;;;;;;7.50;6.72;;;28.00;50.80;;;;;;4730071;56;21046;-31
2022/08/02 06:46:12;;;;;;;7.10;6.40;;;28.00;50.80;;;;;;4871470;56;21120;-31
2022/08/02 06:51:13;;;;;;;7.82;7.05;;;28.10;50.80;;;;;;4702737;56;21014;-31
2022/08/02 06:56:14;;;;;;;8.38;7.53;;;28.10;50.80;;;;;;4626902;56;21531;-30
2022/08/02 07:01:17;;;;;;;17.02;12.85;;;28.00;50.80;;;;;;4652992;56;21058;-31
2022/08/02 07:06:17;;;;;;;16.70;12.23;;;28.00;51.10;;;;;;4626675;56;21085;-28
2022/08/02 07:11:18;;;;;;;20.20;13.62;;;27.80;50.50;;;;;;4662638;56;20997;-28
2022/08/02 07:16:19;;;;;;;22.30;14.65;;;27.70;49.80;;;;;;4817662;56;21045;-27
2022/08/02 07:21:20;;;;;;;20.85;13.50;;;27.60;48.90;;;;;;4644763;56;21096;-25
2022/08/02 07:26:21;;;;;;;19.73;13.93;;;27.50;48.30;;;;;;4854743;56;21025;-28
2022/08/02 07:31:22;;;;;;;23.27;13.20;;;27.40;47.90;;;;;;4614729;60;21097;-28
2022/08/02 07:36:23;;;;;;;21.62;14.40;;;27.40;47.70;;;;;;4630437;56;46375;-29
2022/08/02 07:41:23;;;;;;;20.05;13.98;;;27.30;47.60;;;;;;4788756;56;130238;-27
2022/08/02 07:46:25;;;;;;;21.05;15.15;;;27.30;47.80;;;;;;4723750;56;510997;-28
2022/08/02 07:51:27;;;;;;;19.40;14.80;;;27.30;47.70;;;;;;4588949;57;510639;-29
2022/08/02 07:56:28;;;;;;;22.98;15.77;;;27.20;47.70;;;;;;4507606;57;500199;-29
2022/08/02 08:01:31;;;;;;;23.62;15.73;;;27.20;48.00;;;;;;4529888;57;502283;-28
2022/08/02 08:06:33;;;;;;;22.50;16.02;;;27.20;47.60;;;;;;4647015;57;501537;-27
2022/08/02 08:11:34;;;;;;;22.87;17.67;;;27.20;47.60;;;;;;4524093;57;502673;-28
2022/08/02 08:16:36;;;;;;;28.35;21.35;;;27.20;47.50;;;;;;4498905;61;506510;-27
2022/08/02 08:21:38;;;;;;;31.73;26.37;;;27.20;47.60;;;;;;4772770;57;496412;-27
2022/08/02 08:26:40;;;;;;;41.60;31.25;;;27.10;47.60;;;;;;4530341;57;506761;-28
2022/08/02 08:31:42;;;;;;;41.28;33.13;;;27.10;47.60;;;;;;4557536;57;506495;-27
2022/08/02 08:36:44;;;;;;;40.78;32.17;;;27.10;47.50;;;;;;4500008;61;506505;-33
2022/08/02 08:41:46;;;;;;;40.85;31.77;;;27.10;47.60;;;;;;4500762;61;502283;-27
2022/08/02 08:46:49;;;;;;;44.35;34.30;;;27.10;47.60;;;;;;4668799;57;506461;-26
2022/08/02 08:51:54;;;;;;;50.38;34.95;;;27.30;49.10;;;;;;4522414;57;506504;-27
2022/08/02 08:56:58;;;;;;;42.60;34.58;;;27.50;50.10;;;;;;4535633;57;506537;-32
2022/08/02 09:02:01;;;;;;;43.72;32.90;;;27.70;49.50;;;;;;4508628;57;506520;-26
2022/08/02 09:07:03;;;;;;;41.70;32.30;;;27.70;49.10;;;;;;4766801;57;506520;-30
2022/08/02 09:12:23;;;;;;;42.85;32.15;;;27.80;49.00;;;;;;4543517;57;506467;-29
2022/08/02 09:17:26;;;;;;;40.40;30.25;;;27.90;48.90;;;;;;4655512;57;498446;-28
2022/08/02 09:22:27;;;;;;;39.58;30.42;;;28.00;49.10;;;;;;4673609;57;498431;-29
2022/08/02 09:27:36;;;;;;;33.53;28.75;;;28.00;49.60;;;;;;4499958;61;502279;-29
2022/08/02 09:32:45;;;;;;;35.70;27.75;;;28.10;49.90;;;;;;4501528;61;504358;-28
2022/08/02 09:37:46;;;;;;;35.53;28.70;;;28.20;50.10;;;;;;4570654;57;496037;-28
2022/08/02 09:42:58;;;;;;;38.78;29.12;;;28.30;50.50;;;;;;4500500;57;498105;-30
2022/08/02 09:48:07;;;;;;;37.15;30.55;;;28.20;49.60;;;;;;4505628;57;498424;-28
2022/08/02 09:53:12;;;;;;;40.22;28.87;;;27.80;48.10;;;;;;4535662;57;498188;-26
2022/08/02 09:58:19;;;;;;;30.60;23.98;;;27.70;47.50;;;;;;4539154;57;208572;-24
2022/08/02 10:03:21;;;;;;;27.58;21.70;;;27.60;46.90;;;;;;4544761;57;506469;-27
2022/08/02 10:08:24;;;;;;;24.00;18.08;;;27.50;46.40;;;;;;4551512;57;502302;-29
2022/08/02 10:13:28;;;;;;;20.58;17.27;;;27.40;45.90;;;;;;4583429;57;501231;-29
2022/08/02 10:18:31;;;;;;;22.23;17.35;;;27.30;46.00;;;;;;4525568;57;502265;-27
2022/08/02 10:23:35;;;;;;;19.65;16.23;;;27.30;45.80;;;;;;4576651;57;511026;-29
2022/08/02 10:28:37;;;;;;;20.70;17.37;;;27.20;45.70;;;;;;4575934;57;492170;-28
2022/08/02 10:33:40;;;;;;;19.20;15.73;;;27.10;45.60;;;;;;4661252;56;510633;-27
2022/08/02 10:38:45;;;;;;;23.27;17.62;;;27.10;45.60;;;;;;4656520;56;502612;-28
2022/08/02 10:43:48;;;;;;;21.27;18.55;;;27.10;45.60;;;;;;4568740;56;502618;-29
2022/08/02 10:49:11;;;;;;;19.55;16.40;;;27.10;45.60;;;;;;4601811;56;510941;-31
2022/08/02 10:54:20;;;;;;;20.80;17.83;;;27.00;45.40;;;;;;4571392;56;502306;-30
2022/08/02 10:59:36;;;;;;;35.67;26.87;;;27.00;45.30;;;;;;4549928;60;504695;-26
2022/08/02 11:05:29;;;;;;;40.17;30.80;;;27.00;44.70;;;;;;4572269;56;207260;-27
2022/08/02 11:10:36;;;;;;;37.88;29.83;;;26.90;44.10;;;;;;4597143;56;498112;-30
2022/08/02 11:18:15;;;;;;;36.83;28.67;;;26.80;44.00;;;;;;4662103;56;498469;-30
2022/08/02 11:23:39;;;;;;;28.42;22.27;;;26.80;44.50;;;;;;4591894;56;506618;-26
2022/08/02 11:28:47;;;;;;;25.88;21.90;;;26.70;44.30;;;;;;4557001;56;500203;-26
2022/08/02 11:33:50;;;;;;;24.25;18.83;;;26.70;43.70;;;;;;4561184;56;502608;-29
2022/08/02 11:39:11;;;;;;;24.45;18.67;;;26.70;43.80;;;;;;4564443;56;502310;-28
2022/08/02 11:44:13;;;;;;;25.45;20.20;;;26.70;43.70;;;;;;4597179;56;502286;-27
2022/08/02 11:49:18;;;;;;;30.60;19.40;;;26.60;43.70;;;;;;4698834;56;506470;-29
2022/08/02 11:54:28;;;;;;;24.55;17.98;;;26.60;44.20;;;;;;4549518;60;502584;-25
2022/08/02 11:59:30;;;;;;;20.73;17.15;;;26.60;44.60;;;;;;4651936;56;510601;-29
2022/08/02 12:04:33;;;;;;;18.23;15.35;;;26.60;44.60;;;;;;4559351;57;510654;-28
2022/08/02 12:09:36;;;;;;;17.75;14.38;;;26.70;44.60;;;;;;4548550;57;511048;-26
2022/08/02 12:14:43;;;;;;;19.30;14.25;;;26.70;44.50;;;;;;4693209;56;510932;-27
2022/08/02 12:19:44;;;;;;;18.90;14.73;;;26.70;44.30;;;;;;4727415;56;510655;-30
2022/08/02 12:24:51;;;;;;;15.88;14.18;;;26.70;44.50;;;;;;4548946;60;510643;-22
2022/08/02 12:30:00;;;;;;;18.00;15.18;;;26.70;44.70;;;;;;4737120;56;510990;-27
2022/08/02 12:35:29;;;;;;;22.02;17.08;;;26.70;44.60;;;;;;4657133;56;501257;-27
2022/08/02 12:40:32;;;;;;;28.58;20.73;;;26.70;44.70;;;;;;4609577;56;506440;-28
2022/08/02 12:45:56;;;;;;;28.92;22.60;;;26.80;46.00;;;;;;4548991;60;506550;-28
2022/08/02 12:50:58;;;;;;;30.45;23.05;;;27.30;46.30;;;;;;4658673;56;506527;-28
2022/08/02 12:56:01;;;;;;;28.60;22.05;;;27.60;46.00;;;;;;4608378;56;506571;-29
2022/08/02 13:01:03;;;;;;;26.87;21.23;;;27.70;45.90;;;;;;4554997;56;505486;-26
2022/08/02 13:06:07;;;;;;;26.17;19.73;;;27.80;45.80;;;;;;4626314;56;495129;-27
2022/08/02 13:11:09;;;;;;;25.05;20.48;;;27.90;45.90;;;;;;4614830;56;502322;-29
2022/08/02 13:16:11;;;;;;;26.27;20.08;;;28.00;46.10;;;;;;4629115;56;494276;-31
2022/08/02 13:21:13;;;;;;;26.15;20.58;;;28.10;46.10;;;;;;4776888;56;491989;-32
2022/08/02 13:26:15;;;;;;;23.62;18.37;;;28.10;46.30;;;;;;4819514;56;502847;-30
2022/08/02 13:31:17;;;;;;;23.42;18.70;;;28.20;46.60;;;;;;4601799;56;502890;-29
2022/08/02 13:36:19;;;;;;;26.58;19.58;;;28.20;46.60;;;;;;4569795;56;498142;-28
2022/08/02 13:41:21;;;;;;;23.12;19.55;;;28.30;46.90;;;;;;4643161;56;502278;-28
2022/08/02 13:46:22;;;;;;;21.73;18.20;;;28.30;46.90;;;;;;4618867;56;502601;-32
2022/08/02 13:51:24;;;;;;;22.55;18.98;;;28.30;47.10;;;;;;4603736;56;502639;-34
2022/08/02 13:56:26;;;;;;;26.67;20.60;;;28.40;47.20;;;;;;4613729;56;506779;-27
2022/08/02 14:01:28;;;;;;;29.23;21.17;;;28.40;47.20;;;;;;4568905;56;506770;-32
2022/08/02 14:06:30;;;;;;;31.02;22.35;;;28.50;47.40;;;;;;4674639;56;506774;-30
2022/08/02 14:11:32;;;;;;;28.65;22.50;;;28.40;47.40;;;;;;4639068;56;506464;-30
2022/08/02 14:16:33;;;;;;;29.15;22.23;;;28.40;47.30;;;;;;4548829;60;506466;-31
2022/08/02 14:21:35;;;;;;;27.15;20.75;;;28.40;47.50;;;;;;4725356;56;506751;-30
2022/08/02 14:26:37;;;;;;;27.37;21.48;;;28.40;47.70;;;;;;4549731;60;506532;-31
2022/08/02 14:31:39;;;;;;;26.98;20.92;;;28.40;47.80;;;;;;4718102;56;505398;-33
2022/08/02 14:36:41;;;;;;;26.05;20.30;;;28.30;47.80;;;;;;4634169;56;497411;-30
2022/08/02 14:41:42;;;;;;;28.33;20.37;;;28.30;47.90;;;;;;4549687;60;506449;-29
2022/08/02 14:46:45;;;;;;;24.45;19.92;;;28.30;48.00;;;;;;4668907;56;502338;-31
2022/08/02 14:51:46;;;;;;;23.95;20.25;;;28.30;48.10;;;;;;4666307;56;502338;-33
2022/08/02 14:56:48;;;;;;;22.77;19.25;;;28.30;48.10;;;;;;4557331;56;502608;-30
2022/08/02 15:01:50;;;;;;;23.62;19.87;;;28.30;48.20;;;;;;4549447;60;502620;-31
2022/08/02 15:06:52;;;;;;;22.67;20.17;;;28.30;48.20;;;;;;4549433;60;502612;-32
2022/08/02 15:11:54;;;;;;;23.70;19.75;;;28.30;48.40;;;;;;4696920;56;502625;-31
2022/08/02 15:16:56;;;;;;;25.02;20.62;;;28.30;48.30;;;;;;4776824;56;502282;-31
2022/08/02 15:21:58;;;;;;;23.45;20.17;;;28.30;48.40;;;;;;4732851;56;502299;-32
2022/08/02 15:26:59;;;;;;;22.90;19.95;;;28.30;48.40;;;;;;4604986;56;502638;-34
2022/08/02 15:32:01;;;;;;;23.55;19.27;;;28.30;48.50;;;;;;4702869;56;502601;-33
2022/08/02 15:37:03;;;;;;;23.83;20.05;;;28.30;48.50;;;;;;4639402;56;502636;-32
2022/08/02 15:42:05;;;;;;;21.83;19.50;;;28.30;48.50;;;;;;4556008;56;502299;-32
2022/08/02 15:47:07;;;;;;;24.30;19.42;;;28.30;48.60;;;;;;4572067;56;502302;-28
2022/08/02 15:52:09;;;;;;;24.35;19.33;;;28.30;48.60;;;;;;4550578;60;502278;-35
2022/08/02 15:57:11;;;;;;;23.02;18.87;;;28.20;48.60;;;;;;4627913;56;502350;-31
2022/08/02 16:02:14;;;;;;;21.75;18.30;;;28.20;48.70;;;;;;4587916;56;502381;-31
2022/08/02 16:07:16;;;;;;;23.05;20.12;;;28.30;48.70;;;;;;4788284;56;502294;-29
2022/08/02 16:12:17;;;;;;;23.30;18.90;;;28.30;48.70;;;;;;4647988;56;502290;-31
2022/08/02 16:17:19;;;;;;;21.73;18.85;;;28.30;48.80;;;;;;4549610;60;502278;-34
2022/08/02 16:22:21;;;;;;;22.45;19.67;;;28.30;48.80;;;;;;4779616;56;502608;-34
2022/08/02 16:27:23;;;;;;;21.80;18.50;;;28.30;48.90;;;;;;4593311;56;502302;-31
2022/08/02 16:32:25;;;;;;;22.15;19.42;;;28.30;48.90;;;;;;4590414;56;502310;-31
2022/08/02 16:37:27;;;;;;;21.23;18.30;;;28.20;48.90;;;;;;4603740;56;502283;-30
2022/08/02 16:42:29;;;;;;;23.17;18.33;;;28.30;49.00;;;;;;4722113;56;502291;-30
2022/08/02 16:47:31;;;;;;;21.25;18.52;;;28.30;49.00;;;;;;4780650;56;502593;-31
2022/08/02 16:52:33;;;;;;;20.35;17.33;;;28.20;49.00;;;;;;4554301;56;510595;-32
2022/08/02 16:57:36;;;;;;;21.98;18.52;;;28.30;49.10;;;;;;4666973;56;502302;-30
2022/08/02 17:02:38;;;;;;;20.37;18.12;;;28.20;49.00;;;;;;4617253;56;496032;-35
2022/08/02 17:07:40;;;;;;;20.85;18.10;;;28.20;49.00;;;;;;4643632;56;500633;-32
2022/08/02 17:12:42;;;;;;;20.00;17.90;;;28.30;49.10;;;;;;4549690;60;491867;-34
2022/08/02 17:17:44;;;;;;;22.45;18.23;;;28.30;49.10;;;;;;4607816;56;502282;-31
2022/08/02 17:22:46;;;;;;;21.08;18.48;;;28.30;49.20;;;;;;4549524;60;502601;-31
2022/08/02 17:27:48;;;;;;;21.45;18.52;;;28.30;49.20;;;;;;4738871;56;502592;-33
2022/08/02 17:32:50;;;;;;;19.70;17.60;;;28.30;49.20;;;;;;4628864;56;510634;-30
2022/08/02 17:37:52;;;;;;;20.05;17.92;;;28.30;49.20;;;;;;4687183;56;492189;-31
2022/08/02 17:42:54;;;;;;;21.10;17.95;;;28.30;49.20;;;;;;4549627;60;501225;-33
2022/08/02 17:47:56;;;;;;;20.83;17.85;;;28.30;49.30;;;;;;4727660;56;501236;-35
2022/08/02 17:52:58;;;;;;;19.65;17.55;;;28.30;49.30;;;;;;4569930;56;510615;-32
2022/08/02 17:57:59;;;;;;;20.60;18.37;;;28.30;49.30;;;;;;4676520;56;500203;-31
2022/08/02 18:03:03;;;;;;;19.80;17.70;;;28.30;49.30;;;;;;4553817;56;510961;-31
2022/08/02 18:08:05;;;;;;;20.83;17.90;;;28.30;49.40;;;;;;4790814;56;500252;-30
2022/08/02 18:13:07;;;;;;;19.65;17.37;;;28.30;49.40;;;;;;4548641;57;511009;-31
2022/08/02 18:18:08;;;;;;;20.33;18.10;;;28.30;49.40;;;;;;4792085;56;491918;-33
2022/08/02 18:23:10;;;;;;;20.62;17.40;;;28.30;49.50;;;;;;4581657;56;510941;-30
2022/08/02 18:28:12;;;;;;;19.40;17.35;;;28.30;49.40;;;;;;4548592;60;510965;-29
2022/08/02 18:33:14;;;;;;;18.80;16.75;;;28.30;49.50;;;;;;4700237;56;510636;-32
2022/08/02 18:38:16;;;;;;;18.60;16.60;;;28.30;49.50;;;;;;4894172;56;510611;-30
2022/08/02 18:43:18;;;;;;;18.90;17.00;;;28.30;49.50;;;;;;4548887;60;510628;-31
2022/08/02 18:48:20;;;;;;;18.70;16.70;;;28.30;49.50;;;;;;4548416;60;510620;-34
2022/08/02 18:53:24;;;;;;;20.23;17.35;;;28.20;50.10;;;;;;4642284;56;510620;-32
2022/08/02 18:58:26;;;;;;;18.95;16.58;;;28.30;49.60;;;;;;4596873;56;510937;-31
2022/08/02 19:03:28;;;;;;;18.60;16.62;;;28.30;49.60;;;;;;4593590;56;510910;-32
2022/08/02 19:08:30;;;;;;;19.67;17.10;;;28.30;49.70;;;;;;4751090;56;510694;-30
2022/08/02 19:13:31;;;;;;;19.65;17.12;;;28.30;49.70;;;;;;4628980;56;510686;-28
2022/08/02 19:18:33;;;;;;;18.05;16.05;;;28.30;49.80;;;;;;4700184;56;511670;-27
2022/08/02 19:23:35;;;;;;;19.15;16.75;;;28.30;49.80;;;;;;4549571;60;510617;-34
2022/08/02 19:28:40;;;;;;;18.83;16.85;;;28.30;49.80;;;;;;4620194;56;510616;-31
2022/08/02 19:33:42;;;;;;;19.10;15.93;;;28.30;49.90;;;;;;4573804;56;510622;-30
2022/08/02 19:38:44;;;;;;;19.05;16.45;;;28.30;49.90;;;;;;4607503;56;510623;-31
2022/08/02 19:43:46;;;;;;;18.58;16.58;;;28.30;50.00;;;;;;4759258;56;510609;-34
2022/08/02 19:48:48;;;;;;;17.65;15.65;;;28.30;50.10;;;;;;4646576;56;510635;-31
2022/08/02 19:53:50;;;;;;;19.00;16.00;;;28.30;50.10;;;;;;4560892;56;510611;-30
2022/08/02 19:58:53;;;;;;;18.75;15.50;;;28.30;50.20;;;;;;4671970;56;510611;-31
2022/08/02 20:03:54;;;;;;;17.92;15.95;;;28.30;50.20;;;;;;4789822;56;510970;-30
2022/08/02 20:08:57;;;;;;;17.67;15.77;;;28.30;50.60;;;;;;4548613;60;511115;-33
2022/08/02 20:13:59;;;;;;;19.23;15.43;;;28.30;50.60;;;;;;4624063;56;510606;-32
2022/08/02 20:19:02;;;;;;;16.65;14.93;;;28.30;50.60;;;;;;4810382;56;511163;-32
2022/08/02 20:24:07;;;;;;;17.55;15.73;;;28.30;50.90;;;;;;4548899;56;510606;-30
2022/08/02 20:29:09;;;;;;;17.92;15.70;;;28.30;50.80;;;;;;4646183;56;510623;-31
2022/08/02 20:34:11;;;;;;;17.42;15.25;;;28.30;50.90;;;;;;4560030;56;510658;-32
2022/08/02 20:39:13;;;;;;;18.00;15.35;;;28.30;50.80;;;;;;4594210;56;510940;-31
2022/08/02 20:44:16;;;;;;;17.87;14.80;;;28.30;51.00;;;;;;4731509;56;510654;-29
2022/08/02 20:49:17;;;;;;;18.02;15.55;;;28.30;51.00;;;;;;4877356;56;510985;-30
2022/08/02 20:54:19;;;;;;;16.95;14.70;;;28.30;51.20;;;;;;4690270;56;510951;-34
2022/08/02 20:59:21;;;;;;;16.10;14.23;;;28.30;51.10;;;;;;4549157;60;510674;-31
2022/08/02 21:04:23;;;;;;;17.23;14.90;;;28.30;51.50;;;;;;4638366;56;510632;-31
2022/08/02 21:09:25;;;;;;;16.65;14.93;;;28.30;51.00;;;;;;4593243;56;510650;-29
2022/08/02 21:14:27;;;;;;;15.43;13.82;;;28.30;51.20;;;;;;4548381;57;510694;-32
2022/08/02 21:19:28;;;;;;;15.30;13.70;;;28.30;51.10;;;;;;4585686;56;511103;-32
2022/08/02 21:24:30;;;;;;;16.73;14.95;;;28.30;51.30;;;;;;4548926;60;510730;-31
2022/08/02 21:29:32;;;;;;;16.33;14.07;;;28.20;51.30;;;;;;4610431;56;510615;-29
2022/08/02 21:34:34;;;;;;;17.55;14.30;;;28.30;51.20;;;;;;4700614;56;510619;-30
2022/08/02 21:39:35;;;;;;;15.55;13.68;;;28.30;51.20;;;;;;4549156;60;510610;-30
2022/08/02 21:44:37;;;;;;;14.43;12.82;;;28.20;51.50;;;;;;4549076;60;510612;-33
2022/08/02 21:49:39;;;;;;;15.48;13.73;;;28.30;51.00;;;;;;4569439;56;510610;-32
2022/08/02 21:54:41;;;;;;;14.57;13.07;;;28.30;51.20;;;;;;4548742;60;510946;-30
2022/08/02 21:59:44;;;;;;;14.43;13.02;;;28.30;51.10;;;;;;4640578;56;510943;-33
2022/08/02 22:04:46;;;;;;;15.93;13.20;;;28.20;51.10;;;;;;4769759;56;510957;-31
2022/08/02 22:09:48;;;;;;;14.20;12.70;;;28.20;51.20;;;;;;4548671;60;510949;-34
2022/08/02 22:14:50;;;;;;;13.82;12.37;;;28.30;51.30;;;;;;4549213;60;510603;-31
2022/08/02 22:19:52;;;;;;;15.07;13.10;;;28.30;51.40;;;;;;4549177;60;510607;-34
2022/08/02 22:24:53;;;;;;;13.48;12.02;;;28.20;51.30;;;;;;4655680;56;510639;-33
2022/08/02 22:29:55;;;;;;;13.93;12.45;;;28.30;51.40;;;;;;4837684;56;510627;-29
2022/08/02 22:34:57;;;;;;;13.82;12.37;;;28.30;51.40;;;;;;4649801;56;510777;-31
2022/08/02 22:39:59;;;;;;;14.30;12.73;;;28.30;51.50;;;;;;4583414;56;511012;-32
2022/08/02 22:45:00;;;;;;;15.45;12.13;;;28.30;51.50;;;;;;4549271;60;510949;-32
2022/08/02 22:50:02;;;;;;;12.52;11.30;;;28.20;51.40;;;;;;4548795;60;510611;-31
2022/08/02 22:55:05;;;;;;;13.18;11.88;;;28.30;51.50;;;;;;4883060;56;510966;-28
2022/08/02 23:00:08;;;;;;;12.85;11.43;;;28.30;51.60;;;;;;4773320;56;510955;-30
2022/08/02 23:05:10;;;;;;;13.15;11.77;;;28.30;51.60;;;;;;4577604;56;510934;-34
2022/08/02 23:10:12;;;;;;;12.10;10.90;;;28.30;51.50;;;;;;4979645;56;510948;-32
2022/08/02 23:15:15;;;;;;;13.57;11.90;;;28.30;51.60;;;;;;4716321;56;510640;-30
2022/08/02 23:20:17;;;;;;;13.70;11.75;;;28.30;51.60;;;;;;4557712;56;510964;-30
2022/08/02 23:25:18;;;;;;;12.73;11.27;;;28.30;51.60;;;;;;4555471;56;510957;-33
2022/08/02 23:30:20;;;;;;;12.07;10.88;;;28.30;51.70;;;;;;4583685;56;510615;-33
2022/08/02 23:35:22;;;;;;;12.85;11.55;;;28.30;51.80;;;;;;4612089;56;510953;-31
2022/08/02 23:40:24;;;;;;;12.77;11.48;;;28.30;51.70;;;;;;4632148;56;510953;-31
2022/08/02 23:45:26;;;;;;;12.20;10.73;;;28.30;51.80;;;;;;4550100;56;510726;-30
2022/08/02 23:50:29;;;;;;;13.07;11.70;;;28.30;51.80;;;;;;4549130;60;511394;-29
2022/08/02 23:55:31;;;;;;;12.57;10.82;;;28.30;51.70;;;;;;4811924;56;510946;-31
